createdAt,value
2023-01-15T00:02:18.087Z,8.53
2023-01-15T00:04:45.083Z,8.55
2023-01-15T00:07:11.954Z,8.56
2023-01-15T00:09:38.865Z,8.58
2023-01-15T00:12:05.914Z,8.58
2023-01-15T00:14:32.789Z,8.60
2023-01-15T00:16:59.768Z,8.61
2023-01-15T00:19:26.670Z,8.63
2023-01-15T00:21:54.116Z,8.64
2023-01-15T00:24:39.737Z,8.65
2023-01-15T00:27:25.585Z,8.68
2023-01-15T00:29:52.542Z,8.70
2023-01-15T00:32:19.568Z,8.69
2023-01-15T00:34:46.475Z,8.69
2023-01-15T00:37:13.480Z,8.69
2023-01-15T00:39:40.376Z,8.70
2023-01-15T00:42:07.388Z,8.73
2023-01-15T00:44:34.332Z,8.75
2023-01-15T00:47:01.372Z,8.77
2023-01-15T00:49:28.393Z,8.80
2023-01-15T00:51:55.295Z,8.82
2023-01-15T00:54:22.261Z,8.83
2023-01-15T00:56:49.186Z,8.85
2023-01-15T00:59:16.485Z,8.85
2023-01-15T01:01:43.525Z,8.83
2023-01-15T01:04:10.615Z,8.83
2023-01-15T01:06:37.526Z,8.82
2023-01-15T01:09:04.616Z,8.78
2023-01-15T01:11:34.415Z,8.77
2023-01-15T01:14:02.676Z,8.76
2023-01-15T01:16:37.355Z,8.78
2023-01-15T01:19:15.185Z,8.81
2023-01-15T01:21:43.626Z,8.87
2023-01-15T01:24:21.330Z,8.91
2023-01-15T01:26:50.062Z,8.96
2023-01-15T01:29:20.430Z,8.99
2023-01-15T01:31:48.198Z,9.01
2023-01-15T01:34:15.449Z,9.03
2023-01-15T01:36:44.698Z,9.06
2023-01-15T01:39:18.195Z,9.07
2023-01-15T01:41:46.343Z,9.11
2023-01-15T01:44:34.940Z,9.15
2023-01-15T01:47:08.643Z,9.21
2023-01-15T01:49:38.786Z,9.26
2023-01-15T01:52:15.993Z,9.26
2023-01-15T01:54:46.481Z,9.26
2023-01-15T01:57:16.044Z,9.26
2023-01-15T01:59:44.023Z,9.24
2023-01-15T02:02:11.154Z,9.21
2023-01-15T02:04:38.854Z,9.20
2023-01-15T02:07:07.056Z,9.18
2023-01-15T02:09:34.067Z,9.19
2023-01-15T02:12:17.727Z,9.18
2023-01-15T02:15:00.041Z,9.17
2023-01-15T02:18:33.415Z,9.16
2023-01-15T02:21:10.219Z,9.14
2023-01-15T02:24:17.836Z,9.11
2023-01-15T02:27:03.560Z,9.11
2023-01-15T02:30:04.471Z,9.09
2023-01-15T02:32:56.747Z,9.06
2023-01-15T02:35:45.239Z,9.06
2023-01-15T02:38:22.185Z,9.04
2023-01-15T02:40:54.464Z,9.03
2023-01-15T02:43:26.124Z,9.02
2023-01-15T02:45:58.004Z,9.02
2023-01-15T02:48:30.520Z,9.02
2023-01-15T02:51:11.479Z,9.01
2023-01-15T02:53:43.544Z,9.01
2023-01-15T02:56:24.465Z,9.00
2023-01-15T02:59:00.203Z,9.01
2023-01-15T03:01:34.575Z,9.01
2023-01-15T03:04:11.299Z,9.02
2023-01-15T03:07:02.508Z,9.02
2023-01-15T03:09:31.221Z,9.02
2023-01-15T03:12:18.713Z,9.02
2023-01-15T03:15:05.529Z,9.03
2023-01-15T03:17:54.055Z,9.03
2023-01-15T03:20:26.334Z,9.06
2023-01-15T03:23:06.823Z,9.05
2023-01-15T03:25:42.782Z,9.04
2023-01-15T03:28:12.595Z,9.06
2023-01-15T03:30:40.035Z,9.06
2023-01-15T03:33:11.741Z,9.07
2023-01-15T03:35:58.828Z,9.07
2023-01-15T03:38:33.153Z,9.09
2023-01-15T03:41:40.670Z,9.08
2023-01-15T03:44:28.265Z,9.07
2023-01-15T03:47:25.043Z,9.06
2023-01-15T03:50:09.656Z,9.07
2023-01-15T03:52:46.249Z,9.09
2023-01-15T03:55:22.497Z,9.08
2023-01-15T03:58:01.346Z,9.08
2023-01-15T04:00:42.732Z,9.08
2023-01-15T04:03:13.276Z,9.10
2023-01-15T04:05:41.681Z,9.10
2023-01-15T04:08:11.847Z,9.11
2023-01-15T04:10:51.782Z,9.14
2023-01-15T04:13:19.893Z,9.10
2023-01-15T04:15:47.274Z,8.93
2023-01-15T04:18:17.327Z,8.69
2023-01-15T04:20:45.690Z,8.49
2023-01-15T04:23:13.163Z,8.35
2023-01-15T04:25:41.240Z,8.23
2023-01-15T04:28:09.719Z,8.11
2023-01-15T04:30:37.632Z,8.03
2023-01-15T04:33:05.250Z,7.95
2023-01-15T04:35:32.365Z,7.87
2023-01-15T04:38:00.812Z,7.82
2023-01-15T04:40:47.483Z,7.73
2023-01-15T04:43:33.686Z,7.62
2023-01-15T04:46:01.235Z,7.49
2023-01-15T04:48:28.537Z,7.39
2023-01-15T04:50:56.037Z,7.34
2023-01-15T04:53:23.761Z,7.27
2023-01-15T04:55:50.859Z,7.19
2023-01-15T04:58:18.080Z,7.16
2023-01-15T05:00:45.598Z,7.14
2023-01-15T05:03:12.960Z,7.11
2023-01-15T05:05:40.286Z,7.07
2023-01-15T05:08:07.576Z,7.00
2023-01-15T05:10:37.855Z,6.96
2023-01-15T05:13:05.197Z,6.91
2023-01-15T05:15:33.193Z,6.87
2023-01-15T05:18:00.519Z,6.83
2023-01-15T05:20:30.618Z,6.78
2023-01-15T05:23:02.345Z,6.77
2023-01-15T05:25:29.903Z,6.75
2023-01-15T05:28:03.217Z,6.72
2023-01-15T05:30:30.951Z,6.68
2023-01-15T05:33:01.184Z,6.65
2023-01-15T05:35:28.663Z,6.65
2023-01-15T05:37:59.065Z,6.65
2023-01-15T05:40:32.267Z,6.66
2023-01-15T05:43:00.330Z,6.67
2023-01-15T05:45:28.179Z,6.68
2023-01-15T05:47:59.515Z,6.68
2023-01-15T05:50:30.076Z,6.68
2023-01-15T05:52:57.793Z,6.67
2023-01-15T05:55:25.401Z,6.67
2023-01-15T05:57:53.321Z,6.68
2023-01-15T06:00:21.750Z,6.69
2023-01-15T06:02:50.912Z,6.72
2023-01-15T06:05:21.629Z,6.71
2023-01-15T06:07:52.568Z,6.68
2023-01-15T06:10:20.033Z,6.68
2023-01-15T06:13:02.946Z,6.69
2023-01-15T06:15:30.914Z,6.66
2023-01-15T06:18:01.443Z,6.66
2023-01-15T06:20:32.436Z,6.68
2023-01-15T06:23:05.266Z,6.68
2023-01-15T06:25:42.146Z,6.68
2023-01-15T06:28:16.719Z,6.67
2023-01-15T06:30:44.781Z,6.65
2023-01-15T06:33:12.498Z,6.65
2023-01-15T06:35:40.283Z,6.65
2023-01-15T06:38:08.386Z,6.63
2023-01-15T06:40:39.060Z,6.62
2023-01-15T06:43:31.278Z,6.61
2023-01-15T06:46:17.703Z,6.60
2023-01-15T06:48:48.210Z,6.61
2023-01-15T06:51:19.587Z,6.59
2023-01-15T06:53:47.809Z,6.56
2023-01-15T06:56:15.904Z,6.56
2023-01-15T06:58:43.972Z,6.55
2023-01-15T07:01:15.025Z,6.53
2023-01-15T07:03:42.637Z,6.52
2023-01-15T07:06:13.819Z,6.50
2023-01-15T07:08:45.067Z,6.49
2023-01-15T07:11:18.568Z,6.47
2023-01-15T07:13:51.657Z,6.47
2023-01-15T07:16:28.852Z,6.45
2023-01-15T07:19:05.210Z,6.45
2023-01-15T07:21:38.741Z,6.43
2023-01-15T07:24:07.505Z,6.42
2023-01-15T07:26:35.878Z,6.40
2023-01-15T07:29:04.872Z,6.40
2023-01-15T07:31:33.038Z,6.38
2023-01-15T07:34:01.139Z,6.34
2023-01-15T07:36:38.525Z,6.33
2023-01-15T07:39:10.895Z,6.36
2023-01-15T07:42:03.643Z,6.37
2023-01-15T07:44:53.339Z,6.35
2023-01-15T07:47:44.935Z,6.35
2023-01-15T07:50:25.619Z,6.33
2023-01-15T07:52:57.773Z,6.32
2023-01-15T07:55:29.032Z,6.33
2023-01-15T07:58:05.227Z,6.32
2023-01-15T08:00:33.598Z,6.31
2023-01-15T08:03:03.201Z,6.31
2023-01-15T08:05:30.866Z,6.33
2023-01-15T08:07:58.489Z,6.32
2023-01-15T08:10:31.891Z,6.33
2023-01-15T08:13:21.046Z,6.32
2023-01-15T08:15:50.712Z,6.30
2023-01-15T08:18:21.908Z,6.31
2023-01-15T08:20:58.073Z,6.32
2023-01-15T08:23:29.109Z,6.35
2023-01-15T08:26:02.608Z,6.38
2023-01-15T08:28:29.964Z,6.38
2023-01-15T08:30:57.736Z,6.41
2023-01-15T08:33:25.292Z,6.42
2023-01-15T08:35:53.472Z,6.43
2023-01-15T08:38:21.231Z,6.43
2023-01-15T08:41:03.957Z,6.44
2023-01-15T08:43:36.629Z,6.49
2023-01-15T08:46:06.339Z,6.50
2023-01-15T08:48:40.442Z,6.53
2023-01-15T08:51:13.638Z,6.55
2023-01-15T08:53:52.804Z,6.61
2023-01-15T08:56:23.672Z,6.66
2023-01-15T08:58:51.465Z,6.69
2023-01-15T09:01:20.075Z,6.71
2023-01-15T09:03:48.736Z,6.75
2023-01-15T09:06:26.139Z,6.77
2023-01-15T09:09:02.082Z,6.76
2023-01-15T09:11:36.095Z,6.76
2023-01-15T09:14:58.772Z,6.78
2023-01-15T09:16:58.322Z,6.79
2023-01-15T09:19:32.252Z,6.80
2023-01-15T09:22:05.460Z,6.82
2023-01-15T09:24:38.839Z,6.85
2023-01-15T09:27:15.519Z,6.89
2023-01-15T09:29:49.687Z,6.93
2023-01-15T09:32:17.303Z,6.96
2023-01-15T09:34:44.716Z,6.98
2023-01-15T09:37:12.615Z,7.01
2023-01-15T09:39:40.783Z,7.04
2023-01-15T09:42:43.983Z,7.05
2023-01-15T09:45:32.218Z,7.12
2023-01-15T09:48:24.773Z,7.15
2023-01-15T09:54:37.027Z,7.28
2023-01-15T09:57:16.127Z,7.38
2023-01-15T09:59:55.465Z,7.45
2023-01-15T10:03:21.364Z,7.47
2023-01-15T10:06:03.901Z,7.48
2023-01-15T10:08:55.074Z,7.53
2023-01-15T10:12:07.728Z,7.59
2023-01-15T10:14:51.017Z,7.63
2023-01-15T10:18:00.987Z,7.68
2023-01-15T10:21:09.855Z,7.70
2023-01-15T10:23:49.377Z,7.74
2023-01-15T10:26:44.828Z,7.75
2023-01-15T10:29:39.625Z,7.78
2023-01-15T10:33:06.851Z,7.82
2023-01-15T10:36:11.827Z,7.85
2023-01-15T10:38:56.137Z,7.90
2023-01-15T10:41:53.369Z,7.94
2023-01-15T10:44:53.971Z,7.99
2023-01-15T10:47:47.139Z,8.05
2023-01-15T10:50:22.376Z,8.10
2023-01-15T10:53:28.996Z,8.12
2023-01-15T10:56:08.230Z,8.13
2023-01-15T10:58:48.075Z,8.10
2023-01-15T11:01:23.882Z,8.09
2023-01-15T11:03:51.899Z,8.11
2023-01-15T11:06:25.824Z,8.18
2023-01-15T11:09:09.158Z,8.24
2023-01-15T11:12:07.168Z,8.29
2023-01-15T11:15:03.237Z,8.34
2023-01-15T11:18:16.978Z,8.37
2023-01-15T11:21:07.984Z,8.41
2023-01-15T11:23:39.548Z,8.41
2023-01-15T11:26:33.933Z,8.33
2023-01-15T11:29:36.612Z,8.27
2023-01-15T11:32:10.822Z,8.27
2023-01-15T11:34:52.889Z,8.29
2023-01-15T11:37:23.862Z,8.27
2023-01-15T11:40:56.006Z,8.22
2023-01-15T11:43:55.357Z,8.20
2023-01-15T11:46:49.741Z,8.19
2023-01-15T11:49:49.013Z,8.18
2023-01-15T11:52:33.015Z,8.16
2023-01-15T11:55:06.495Z,8.14
2023-01-15T11:57:37.750Z,8.14
2023-01-15T12:00:14.380Z,8.14
2023-01-15T12:02:57.929Z,8.11
2023-01-15T12:05:41.564Z,8.05
2023-01-15T12:09:22.918Z,8.00
2023-01-15T12:12:31.270Z,8.01
2023-01-15T12:15:48.216Z,8.02
2023-01-15T12:18:53.431Z,8.04
2023-01-15T12:22:18.948Z,8.01
2023-01-15T12:25:10.203Z,8.04
2023-01-15T12:28:27.624Z,8.06
2023-01-15T12:31:04.590Z,8.09
2023-01-15T12:34:25.495Z,8.08
2023-01-15T12:37:42.491Z,8.10
2023-01-15T12:41:03.786Z,8.10
2023-01-15T12:44:00.659Z,8.12
2023-01-15T12:50:49.073Z,8.05
2023-01-15T12:54:19.770Z,7.99
2023-01-15T12:57:47.554Z,7.92
2023-01-15T13:04:40.588Z,7.88
2023-01-15T13:07:38.648Z,7.86
2023-01-15T13:11:13.276Z,7.89
2023-01-15T13:14:29.003Z,7.90
2023-01-15T13:18:11.266Z,7.93
2023-01-15T13:25:29.926Z,7.87
2023-01-15T13:28:51.709Z,7.78
2023-01-15T13:31:58.754Z,7.67
2023-01-15T13:35:17.426Z,7.52
2023-01-15T13:38:11.668Z,7.41
2023-01-15T13:40:59.818Z,7.35
2023-01-15T13:43:54.251Z,7.29
2023-01-15T13:46:58.154Z,7.21
2023-01-15T13:50:02.307Z,7.14
2023-01-15T13:52:53.061Z,7.08
2023-01-15T13:55:58.137Z,7.05
2023-01-15T13:59:09.859Z,7.06
2023-01-15T14:04:54.263Z,7.17
2023-01-15T14:07:39.893Z,7.22
2023-01-15T14:11:00.293Z,7.25
2023-01-15T14:14:47.699Z,7.22
2023-01-15T14:18:04.100Z,7.14
2023-01-15T14:21:26.762Z,7.03
2023-01-15T14:25:06.912Z,6.95
2023-01-15T14:28:32.377Z,6.88
2023-01-15T14:32:05.791Z,6.83
2023-01-15T14:34:35.753Z,6.80
2023-01-15T14:37:23.504Z,6.75
2023-01-15T14:40:03.440Z,6.72
2023-01-15T14:42:56.841Z,6.70
2023-01-15T14:45:29.947Z,6.66
2023-01-15T14:47:59.777Z,6.63
2023-01-15T14:50:39.106Z,6.58
2023-01-15T14:53:12.047Z,6.59
2023-01-15T14:55:52.054Z,6.63
2023-01-15T14:58:37.649Z,6.72
2023-01-15T15:01:35.225Z,6.80
2023-01-15T15:04:37.135Z,6.85
2023-01-15T15:07:13.515Z,6.86
2023-01-15T15:09:46.751Z,6.80
2023-01-15T15:12:48.558Z,6.68
2023-01-15T15:15:27.403Z,6.57
2023-01-15T15:18:12.485Z,6.45
2023-01-15T15:20:42.444Z,6.37
2023-01-15T15:23:37.142Z,6.24
2023-01-15T15:26:17.581Z,6.17
2023-01-15T15:28:59.223Z,6.11
2023-01-15T15:31:27.978Z,6.04
2023-01-15T15:33:56.244Z,5.96
2023-01-15T15:36:31.379Z,5.90
2023-01-15T15:39:12.919Z,5.86
2023-01-15T15:42:02.821Z,5.82
2023-01-15T15:45:10.625Z,5.77
2023-01-15T15:47:58.574Z,5.73
2023-01-15T15:50:34.901Z,5.66
2023-01-15T15:53:06.691Z,5.63
2023-01-15T15:55:42.888Z,5.58
2023-01-15T15:58:21.312Z,5.55
2023-01-15T16:00:49.100Z,5.51
2023-01-15T16:03:27.720Z,5.47
2023-01-15T16:06:07.195Z,5.41
2023-01-15T16:08:36.271Z,5.38
2023-01-15T16:11:11.525Z,5.31
2023-01-15T16:13:41.639Z,5.29
2023-01-15T16:16:09.699Z,5.24
2023-01-15T16:18:44.692Z,5.20
2023-01-15T16:21:31.698Z,5.15
2023-01-15T16:24:07.230Z,5.10
2023-01-15T16:26:45.632Z,5.07
2023-01-15T16:29:23.648Z,5.06
2023-01-15T16:31:52.111Z,5.03
2023-01-15T16:34:28.383Z,5.02
2023-01-15T16:36:55.406Z,5.02
2023-01-15T16:39:40.717Z,5.00
2023-01-15T16:42:37.617Z,4.99
2023-01-15T16:45:22.304Z,4.95
2023-01-15T16:48:07.363Z,4.92
2023-01-15T16:50:36.765Z,4.91
2023-01-15T16:53:06.443Z,4.90
2023-01-15T16:55:42.080Z,4.90
2023-01-15T16:58:14.893Z,4.90
2023-01-15T17:00:47.966Z,4.91
2023-01-15T17:03:24.440Z,4.90
2023-01-15T17:06:00.150Z,4.90
2023-01-15T17:08:39.603Z,4.93
2023-01-15T17:11:29.899Z,4.96
2023-01-15T17:14:26.922Z,4.95
2023-01-15T17:17:21.865Z,4.96
2023-01-15T17:19:49.901Z,4.98
2023-01-15T17:22:29.485Z,4.99
2023-01-15T17:24:58.982Z,5.01
2023-01-15T17:27:29.009Z,4.99
2023-01-15T17:29:56.187Z,4.98
2023-01-15T17:32:30.568Z,4.97
2023-01-15T17:34:57.629Z,4.96
2023-01-15T17:37:24.460Z,4.96
2023-01-15T17:39:51.434Z,4.97
2023-01-15T17:42:19.652Z,4.96
2023-01-15T17:44:46.925Z,4.95
2023-01-15T17:47:14.083Z,4.95
2023-01-15T17:49:41.039Z,4.94
2023-01-15T17:52:15.906Z,4.95
2023-01-15T17:55:02.185Z,4.98
2023-01-15T17:57:47.681Z,4.99
2023-01-15T18:00:44.348Z,5.00
2023-01-15T18:03:37.521Z,4.99
2023-01-15T18:06:05.330Z,5.01
2023-01-15T18:08:33.827Z,5.03
2023-01-15T18:11:00.859Z,5.04
2023-01-15T18:13:27.783Z,5.04
2023-01-15T18:15:54.773Z,5.05
2023-01-15T18:18:21.689Z,5.06
2023-01-15T18:20:49.601Z,5.07
2023-01-15T18:23:16.669Z,5.08
2023-01-15T18:25:46.208Z,5.08
2023-01-15T18:28:14.526Z,5.07
2023-01-15T18:30:41.712Z,5.08
2023-01-15T18:33:08.660Z,5.06
2023-01-15T18:35:35.707Z,5.06
2023-01-15T18:38:02.710Z,5.04
2023-01-15T18:40:35.550Z,5.05
2023-01-15T18:43:20.756Z,5.09
2023-01-15T18:46:07.473Z,5.08
2023-01-15T18:48:34.789Z,5.05
2023-01-15T18:51:10.067Z,5.02
2023-01-15T18:53:37.059Z,5.02
2023-01-15T18:56:05.465Z,5.02
2023-01-15T18:58:32.475Z,5.03
2023-01-15T19:01:07.531Z,5.04
2023-01-15T19:03:34.554Z,5.08
2023-01-15T19:06:13.580Z,5.07
2023-01-15T19:08:40.538Z,5.08
2023-01-15T19:11:13.522Z,5.09
2023-01-15T19:13:42.160Z,5.11
2023-01-15T19:16:28.002Z,5.12
2023-01-15T19:18:55.420Z,5.12
2023-01-15T19:21:22.968Z,5.14
2023-01-15T19:23:51.793Z,5.14
2023-01-15T19:26:18.724Z,5.13
2023-01-15T19:28:45.674Z,5.14
2023-01-15T19:31:31.467Z,5.14
2023-01-15T19:34:31.095Z,5.15
2023-01-15T19:36:47.789Z,5.15
2023-01-15T19:39:16.837Z,5.15
2023-01-15T19:42:03.126Z,5.16
2023-01-15T19:44:48.598Z,5.15
2023-01-15T19:47:42.857Z,5.12
2023-01-15T19:50:23.828Z,5.10
2023-01-15T19:52:54.281Z,5.10
2023-01-15T19:55:23.724Z,5.09
2023-01-15T19:58:02.184Z,5.08
2023-01-15T20:00:31.105Z,5.08
2023-01-15T20:02:58.594Z,5.08
2023-01-15T20:05:28.776Z,5.07
2023-01-15T20:07:56.113Z,5.08
2023-01-15T20:10:25.834Z,5.10
2023-01-15T20:13:12.217Z,5.11
2023-01-15T20:15:42.669Z,5.09
2023-01-15T20:18:09.804Z,5.09
2023-01-15T20:20:38.521Z,5.08
2023-01-15T20:23:06.043Z,5.03
2023-01-15T20:25:33.211Z,5.00
2023-01-15T20:28:00.452Z,4.97
2023-01-15T20:30:28.374Z,4.96
2023-01-15T20:33:00.460Z,4.93
2023-01-15T20:35:33.530Z,4.92
2023-01-15T20:38:00.559Z,4.91
2023-01-15T20:40:28.593Z,4.92
2023-01-15T20:43:14.518Z,4.93
2023-01-15T20:45:41.756Z,4.94
2023-01-15T20:48:11.708Z,4.95
2023-01-15T20:51:01.119Z,4.97
2023-01-15T20:53:33.987Z,4.98
2023-01-15T20:56:02.814Z,4.97
2023-01-15T20:58:30.055Z,4.97
2023-01-15T21:01:04.271Z,4.99
2023-01-15T21:03:31.220Z,5.00
2023-01-15T21:05:58.802Z,5.01
2023-01-15T21:08:25.956Z,5.01
2023-01-15T21:10:54.488Z,5.02
2023-01-15T21:13:22.914Z,5.01
2023-01-15T21:16:04.983Z,4.99
2023-01-15T21:18:35.656Z,4.99
2023-01-15T21:21:09.958Z,4.98
2023-01-15T21:23:36.967Z,4.99
2023-01-15T21:26:04.016Z,4.99
2023-01-15T21:28:31.187Z,4.98
2023-01-15T21:30:58.481Z,5.01
2023-01-15T21:33:25.623Z,5.05
2023-01-15T21:35:52.657Z,5.07
2023-01-15T21:38:19.623Z,5.11
2023-01-15T21:40:46.667Z,5.14
2023-01-15T21:43:31.912Z,5.17
2023-01-15T21:46:05.979Z,5.19
2023-01-15T21:48:33.866Z,5.23
2023-01-15T21:51:05.801Z,5.24
2023-01-15T21:53:33.536Z,5.25
2023-01-15T21:56:00.511Z,5.25
2023-01-15T21:58:27.543Z,5.30
2023-01-15T22:00:54.584Z,5.35
2023-01-15T22:03:21.733Z,5.37
2023-01-15T22:05:48.666Z,5.39
2023-01-15T22:08:17.125Z,5.37
2023-01-15T22:10:44.179Z,5.36
2023-01-15T22:13:11.185Z,5.30
2023-01-15T22:15:38.034Z,5.26
2023-01-15T22:18:04.886Z,5.21
2023-01-15T22:20:31.842Z,5.17
2023-01-15T22:22:58.802Z,5.11
2023-01-15T22:25:25.741Z,5.06
2023-01-15T22:27:54.070Z,5.00
2023-01-15T22:30:21.119Z,4.95
2023-01-15T22:32:49.483Z,4.91
2023-01-15T22:35:17.870Z,4.87
2023-01-15T22:37:44.793Z,4.85
2023-01-15T22:40:12.656Z,4.82
2023-01-15T22:42:39.618Z,4.78
2023-01-15T22:45:06.911Z,4.76
2023-01-15T22:47:33.890Z,4.74
2023-01-15T22:50:00.998Z,4.73
2023-01-15T22:52:28.440Z,4.70
2023-01-15T22:54:55.542Z,4.68
2023-01-15T22:57:23.500Z,4.65
2023-01-15T22:59:50.439Z,4.63
2023-01-15T23:02:38.496Z,4.65
2023-01-15T23:05:09.110Z,4.70
2023-01-15T23:07:41.619Z,4.71
2023-01-15T23:10:14.793Z,4.74
2023-01-15T23:12:45.631Z,4.75
2023-01-15T23:15:17.581Z,4.75
2023-01-15T23:17:47.186Z,4.74
2023-01-15T23:20:16.954Z,4.72
2023-01-15T23:22:46.334Z,4.69
2023-01-15T23:25:16.341Z,4.66
2023-01-15T23:27:46.160Z,4.60
2023-01-15T23:30:16.290Z,4.57
2023-01-15T23:32:46.979Z,4.53
2023-01-15T23:35:14.897Z,4.52
2023-01-15T23:37:44.901Z,4.50
2023-01-15T23:40:15.244Z,4.52
2023-01-15T23:43:03.195Z,4.56
2023-01-15T23:45:51.099Z,4.57
2023-01-15T23:48:21.644Z,4.58
2023-01-15T23:50:51.336Z,4.59
2023-01-15T23:53:20.946Z,4.58
2023-01-15T23:55:50.634Z,4.60
2023-01-15T23:58:19.926Z,4.65
